createdAt,value
2022-12-04T00:01:10.879Z,8.03
2022-12-04T00:03:37.742Z,8.00
2022-12-04T00:06:12.702Z,8.60
2022-12-04T00:08:40.013Z,7.53
2022-12-04T00:11:08.545Z,8.30
2022-12-04T00:13:35.426Z,7.93
2022-12-04T00:16:07.605Z,8.30
2022-12-04T00:18:34.430Z,9.17
2022-12-04T00:21:04.361Z,7.90
2022-12-04T00:23:30.876Z,8.73
2022-12-04T00:26:04.752Z,8.13
2022-12-04T00:28:31.245Z,9.20
2022-12-04T00:30:57.544Z,9.07
2022-12-04T00:33:23.970Z,8.30
2022-12-04T00:36:01.098Z,8.53
2022-12-04T00:38:27.614Z,8.10
2022-12-04T00:40:54.739Z,9.80
2022-12-04T00:43:22.009Z,9.23
2022-12-04T00:45:48.864Z,9.33
2022-12-04T00:48:15.250Z,8.27
2022-12-04T00:50:41.730Z,8.67
2022-12-04T00:53:08.096Z,8.00
2022-12-04T00:55:37.986Z,8.57
2022-12-04T00:58:04.687Z,7.90
2022-12-04T01:00:31.488Z,9.13
2022-12-04T01:02:57.851Z,8.27
2022-12-04T01:05:24.196Z,8.90
2022-12-04T01:07:50.592Z,9.43
2022-12-04T01:10:16.984Z,8.47
2022-12-04T01:12:43.337Z,8.43
2022-12-04T01:15:10.078Z,9.03
2022-12-04T01:17:36.589Z,9.70
2022-12-04T01:20:04.122Z,9.73
2022-12-04T01:22:30.811Z,9.57
2022-12-04T01:24:57.418Z,9.53
2022-12-04T01:27:24.322Z,9.70
2022-12-04T01:29:50.637Z,8.80
2022-12-04T01:32:17.021Z,9.07
2022-12-04T01:34:43.405Z,8.27
2022-12-04T01:37:09.825Z,9.37
2022-12-04T01:39:37.249Z,8.63
2022-12-04T01:42:04.277Z,10.00
2022-12-04T01:44:31.732Z,7.80
2022-12-04T01:47:01.367Z,9.47
2022-12-04T01:49:37.341Z,7.77
2022-12-04T01:52:14.198Z,8.80
2022-12-04T01:54:45.329Z,8.93
2022-12-04T01:57:23.631Z,9.23
2022-12-04T01:59:57.536Z,8.60
2022-12-04T02:02:29.704Z,9.80
2022-12-04T02:04:56.349Z,8.70
2022-12-04T02:07:22.771Z,8.87
2022-12-04T02:09:54.163Z,9.83
2022-12-04T02:12:28.389Z,9.80
2022-12-04T02:15:17.646Z,8.43
2022-12-04T02:18:16.500Z,9.73
2022-12-04T02:20:58.392Z,8.27
2022-12-04T02:23:49.013Z,8.20
2022-12-04T02:26:27.480Z,8.33
2022-12-04T02:29:07.669Z,8.40
2022-12-04T02:31:57.021Z,7.70
2022-12-04T02:34:29.525Z,8.13
2022-12-04T02:37:01.817Z,9.50
2022-12-04T02:39:36.281Z,8.57
2022-12-04T02:42:11.966Z,9.90
2022-12-04T02:44:47.278Z,8.70
2022-12-04T02:47:19.060Z,8.53
2022-12-04T02:49:50.459Z,8.80
2022-12-04T02:52:22.745Z,8.70
2022-12-04T02:54:54.425Z,9.40
2022-12-04T02:57:27.979Z,8.80
2022-12-04T02:59:57.495Z,8.60
2022-12-04T03:02:59.325Z,9.10
2022-12-04T03:05:54.085Z,8.23
2022-12-04T03:08:26.096Z,8.30
2022-12-04T03:10:57.858Z,7.83
2022-12-04T03:13:30.673Z,8.30
2022-12-04T03:16:03.493Z,8.53
2022-12-04T03:18:36.213Z,8.70
2022-12-04T03:21:14.224Z,8.03
2022-12-04T03:23:53.495Z,8.63
2022-12-04T03:26:28.349Z,7.53
2022-12-04T03:29:05.127Z,9.03
2022-12-04T03:31:42.565Z,8.13
2022-12-04T03:34:12.817Z,8.30
2022-12-04T03:36:53.597Z,9.47
2022-12-04T03:39:29.851Z,8.47
2022-12-04T03:42:08.210Z,8.93
2022-12-04T03:44:52.897Z,8.53
2022-12-04T03:47:29.216Z,8.03
2022-12-04T03:50:04.882Z,8.50
2022-12-04T03:52:46.730Z,8.73
2022-12-04T03:55:24.915Z,8.87
2022-12-04T03:57:56.585Z,8.00
2022-12-04T04:00:23.178Z,8.03
2022-12-04T04:02:59.691Z,8.03
2022-12-04T04:05:29.159Z,8.20
2022-12-04T04:08:21.443Z,8.47
2022-12-04T04:10:50.221Z,8.57
2022-12-04T04:13:38.671Z,8.03
2022-12-04T04:16:27.028Z,8.30
2022-12-04T04:19:13.111Z,8.20
2022-12-04T04:22:02.316Z,8.70
2022-12-04T04:24:39.869Z,8.33
2022-12-04T04:27:06.459Z,8.07
2022-12-04T04:29:33.157Z,8.07
2022-12-04T04:32:10.274Z,9.10
2022-12-04T04:35:00.350Z,8.00
2022-12-04T04:37:54.750Z,7.43
2022-12-04T04:40:52.527Z,8.30
2022-12-04T04:43:28.114Z,8.27
2022-12-04T04:46:00.207Z,8.07
2022-12-04T04:48:36.576Z,8.03
2022-12-04T04:51:04.764Z,8.33
2022-12-04T04:53:36.641Z,8.27
2022-12-04T04:56:05.713Z,8.37
2022-12-04T04:58:32.097Z,8.43
2022-12-04T05:01:08.244Z,8.50
2022-12-04T05:03:35.205Z,7.53
2022-12-04T05:06:02.038Z,7.17
2022-12-04T05:08:28.422Z,8.13
2022-12-04T05:10:55.294Z,8.57
2022-12-04T05:13:21.729Z,8.40
2022-12-04T05:16:08.803Z,7.40
2022-12-04T05:18:35.761Z,7.97
2022-12-04T05:21:09.737Z,7.57
2022-12-04T05:23:36.098Z,7.20
2022-12-04T05:26:04.778Z,6.70
2022-12-04T05:28:31.254Z,8.23
2022-12-04T05:30:59.211Z,7.60
2022-12-04T05:33:25.704Z,7.73
2022-12-04T05:35:59.834Z,7.87
2022-12-04T05:38:26.359Z,8.00
2022-12-04T05:40:52.735Z,7.93
2022-12-04T05:43:19.434Z,8.73
2022-12-04T05:45:45.802Z,9.07
2022-12-04T05:48:12.101Z,7.67
2022-12-04T05:50:39.030Z,7.67
2022-12-04T05:53:05.324Z,8.33
2022-12-04T05:55:32.139Z,8.37
2022-12-04T05:57:58.521Z,8.03
2022-12-04T06:00:24.897Z,6.90
2022-12-04T06:02:51.244Z,6.97
2022-12-04T06:05:17.739Z,7.73
2022-12-04T06:07:44.169Z,7.97
2022-12-04T06:10:10.642Z,8.13
2022-12-04T06:12:36.993Z,8.40
2022-12-04T06:15:03.824Z,7.50
2022-12-04T06:17:30.773Z,8.37
2022-12-04T06:19:57.431Z,7.30
2022-12-04T06:22:24.066Z,8.03
2022-12-04T06:24:50.391Z,8.00
2022-12-04T06:27:32.006Z,7.47
2022-12-04T06:29:58.989Z,8.07
2022-12-04T06:32:25.495Z,8.47
2022-12-04T06:34:53.359Z,7.90
2022-12-04T06:37:21.529Z,7.87
2022-12-04T06:39:47.930Z,7.27
2022-12-04T06:42:14.267Z,7.43
2022-12-04T06:44:40.641Z,7.73
2022-12-04T06:47:08.159Z,7.60
2022-12-04T06:49:34.575Z,8.80
2022-12-04T06:52:00.892Z,8.13
2022-12-04T06:54:27.259Z,8.10
2022-12-04T06:56:53.585Z,8.30
2022-12-04T06:59:19.890Z,8.20
2022-12-04T07:01:46.177Z,7.97
2022-12-04T07:04:12.485Z,8.27
2022-12-04T07:06:39.903Z,7.80
2022-12-04T07:09:11.695Z,7.77
2022-12-04T07:11:39.956Z,7.53
2022-12-04T07:14:06.634Z,7.70
2022-12-04T07:16:39.902Z,7.10
2022-12-04T07:19:07.691Z,7.33
2022-12-04T07:21:34.608Z,7.27
2022-12-04T07:24:01.516Z,7.33
2022-12-04T07:26:29.808Z,7.20
2022-12-04T07:28:57.313Z,7.30
2022-12-04T07:31:25.343Z,7.67
2022-12-04T07:33:54.009Z,6.67
2022-12-04T07:36:22.111Z,6.60
2022-12-04T07:38:49.582Z,7.53
2022-12-04T07:41:17.056Z,7.10
2022-12-04T07:43:43.442Z,7.63
2022-12-04T07:46:18.627Z,6.93
2022-12-04T07:48:45.057Z,6.70
2022-12-04T07:51:20.208Z,6.80
2022-12-04T07:53:47.182Z,7.13
2022-12-04T07:56:14.469Z,7.57
2022-12-04T07:58:41.408Z,7.03
2022-12-04T08:01:13.360Z,6.63
2022-12-04T08:03:46.759Z,7.00
2022-12-04T08:06:14.490Z,6.93
2022-12-04T08:08:40.772Z,6.40
2022-12-04T08:11:09.613Z,6.27
2022-12-04T08:13:36.050Z,5.97
2022-12-04T08:16:05.174Z,6.13
2022-12-04T08:18:32.042Z,6.47
2022-12-04T08:21:12.964Z,6.67
2022-12-04T08:23:41.238Z,6.37
2022-12-04T08:26:08.697Z,6.17
2022-12-04T08:28:36.298Z,6.23
2022-12-04T08:31:04.964Z,6.47
2022-12-04T08:33:32.718Z,6.27
2022-12-04T08:35:59.361Z,5.70
2022-12-04T08:38:25.672Z,6.03
2022-12-04T08:40:52.011Z,6.23
2022-12-04T08:43:18.390Z,5.83
2022-12-04T08:45:44.760Z,5.60
2022-12-04T08:48:11.108Z,6.23
2022-12-04T08:50:37.914Z,7.03
2022-12-04T08:53:04.284Z,6.93
2022-12-04T08:55:30.586Z,7.23
2022-12-04T08:57:56.912Z,6.97
2022-12-04T09:00:25.793Z,7.77
2022-12-04T09:02:52.097Z,6.77
2022-12-04T09:05:18.461Z,7.53
2022-12-04T09:07:44.897Z,6.57
2022-12-04T09:10:12.177Z,6.23
2022-12-04T09:12:38.766Z,6.37
2022-12-04T09:15:05.730Z,6.00
2022-12-04T09:17:32.127Z,5.43
2022-12-04T09:20:01.229Z,6.43
2022-12-04T09:22:40.384Z,6.67
2022-12-04T09:25:14.382Z,6.20
2022-12-04T09:27:44.815Z,6.33
2022-12-04T09:30:12.818Z,7.07
2022-12-04T09:32:39.541Z,6.63
2022-12-04T09:35:06.894Z,6.87
2022-12-04T09:37:33.415Z,6.50
2022-12-04T09:39:59.778Z,6.20
2022-12-04T09:42:48.963Z,5.63
2022-12-04T09:45:22.287Z,6.83
2022-12-04T09:47:52.116Z,6.40
2022-12-04T09:50:20.502Z,6.63
2022-12-04T09:52:58.142Z,7.03
2022-12-04T09:55:39.874Z,6.97
2022-12-04T09:58:12.271Z,6.17
2022-12-04T10:00:42.825Z,6.40
2022-12-04T10:03:16.211Z,6.10
2022-12-04T10:05:49.585Z,7.13
2022-12-04T10:08:40.309Z,5.87
2022-12-04T10:11:32.623Z,6.37
2022-12-04T10:14:08.663Z,6.00
2022-12-04T10:16:53.194Z,6.20
2022-12-04T10:19:37.348Z,6.77
2022-12-04T10:22:18.877Z,5.60
2022-12-04T10:24:53.933Z,6.10
2022-12-04T10:27:33.746Z,7.80
2022-12-04T10:30:32.433Z,7.17
2022-12-04T10:33:27.934Z,7.80
2022-12-04T10:35:54.968Z,7.57
2022-12-04T10:38:52.390Z,6.57
2022-12-04T10:41:50.839Z,6.37
2022-12-04T10:44:20.756Z,6.73
2022-12-04T10:46:47.490Z,6.50
2022-12-04T10:49:19.461Z,6.20
2022-12-04T10:51:46.766Z,6.63
2022-12-04T10:54:19.643Z,7.20
2022-12-04T10:56:57.719Z,7.63
2022-12-04T10:59:24.317Z,7.30
2022-12-04T11:01:52.570Z,7.60
2022-12-04T11:04:30.720Z,7.17
2022-12-04T11:07:03.685Z,7.30
2022-12-04T11:09:31.063Z,6.77
2022-12-04T11:12:15.435Z,6.03
2022-12-04T11:14:46.673Z,5.93
2022-12-04T11:17:18.432Z,6.10
2022-12-04T11:19:46.961Z,6.87
2022-12-04T11:22:19.250Z,7.20
2022-12-04T11:24:55.886Z,7.10
2022-12-04T11:27:28.237Z,6.13
2022-12-04T11:29:56.107Z,5.97
2022-12-04T11:32:25.260Z,6.53
2022-12-04T11:34:55.348Z,5.77
2022-12-04T11:37:26.053Z,6.13
2022-12-04T11:39:53.935Z,6.07
2022-12-04T11:42:29.223Z,6.10
2022-12-04T11:44:57.103Z,5.93
2022-12-04T11:47:26.102Z,6.30
2022-12-04T11:50:13.058Z,6.47
2022-12-04T11:53:03.004Z,6.17
2022-12-04T11:56:01.685Z,5.93
2022-12-04T11:58:49.697Z,5.70
2022-12-04T12:01:38.603Z,5.90
2022-12-04T12:04:26.418Z,5.63
2022-12-04T12:07:04.735Z,6.63
2022-12-04T12:09:49.416Z,6.40
2022-12-04T12:12:31.111Z,7.90
2022-12-04T12:15:26.970Z,5.93
2022-12-04T12:18:22.444Z,7.70
2022-12-04T12:21:09.421Z,7.00
2022-12-04T12:24:07.322Z,8.77
2022-12-04T12:26:54.690Z,10.23
2022-12-04T12:29:29.959Z,8.53
2022-12-04T12:32:23.567Z,7.10
2022-12-04T12:34:50.990Z,6.80
2022-12-04T12:37:30.823Z,6.50
2022-12-04T12:40:04.376Z,6.33
2022-12-04T12:42:40.555Z,7.23
2022-12-04T12:45:22.314Z,6.77
2022-12-04T12:47:54.039Z,6.60
2022-12-04T12:50:24.407Z,7.20
2022-12-04T12:53:03.345Z,6.73
2022-12-04T12:56:12.843Z,6.73
2022-12-04T12:58:55.676Z,7.80
2022-12-04T13:01:42.438Z,10.80
2022-12-04T13:04:14.900Z,10.63
2022-12-04T13:06:44.045Z,7.70
2022-12-04T13:09:26.083Z,7.87
2022-12-04T13:11:58.407Z,7.87
2022-12-04T13:14:24.889Z,8.50
2022-12-04T13:17:00.628Z,8.23
2022-12-04T13:19:34.743Z,7.37
2022-12-04T13:22:22.800Z,7.73
2022-12-04T13:24:58.112Z,7.77
2022-12-04T13:27:39.766Z,7.37
2022-12-04T13:30:50.916Z,6.70
2022-12-04T13:33:44.548Z,7.20
2022-12-04T13:36:23.076Z,7.73
2022-12-04T13:39:08.205Z,7.73
2022-12-04T13:41:38.043Z,7.27
2022-12-04T13:44:14.529Z,8.57
2022-12-04T13:46:54.517Z,7.43
2022-12-04T13:49:20.853Z,7.27
2022-12-04T13:51:48.696Z,7.53
2022-12-04T13:54:14.969Z,7.30
2022-12-04T13:56:43.746Z,9.10
2022-12-04T13:59:28.457Z,8.73
2022-12-04T14:02:00.264Z,7.87
2022-12-04T14:04:45.703Z,7.20
2022-12-04T14:07:30.478Z,7.67
2022-12-04T14:09:59.308Z,8.03
2022-12-04T14:12:30.164Z,8.23
2022-12-04T14:14:59.994Z,7.53
2022-12-04T14:17:30.582Z,7.60
2022-12-04T14:20:07.860Z,11.13
2022-12-04T14:22:34.639Z,10.37
2022-12-04T14:25:13.298Z,7.80
2022-12-04T14:27:42.697Z,7.47
2022-12-04T14:30:37.605Z,7.30
2022-12-04T14:33:22.548Z,7.87
2022-12-04T14:36:24.907Z,7.27
2022-12-04T14:39:26.022Z,7.33
2022-12-04T14:41:55.952Z,7.13
2022-12-04T14:44:29.799Z,7.80
2022-12-04T14:47:02.675Z,7.67
2022-12-04T14:49:47.677Z,7.77
2022-12-04T14:52:24.236Z,7.37
2022-12-04T14:55:07.337Z,7.57
2022-12-04T14:57:57.729Z,7.77
2022-12-04T15:00:24.726Z,7.07
2022-12-04T15:02:55.908Z,7.50
2022-12-04T15:05:27.120Z,7.70
2022-12-04T15:07:58.533Z,7.80
2022-12-04T15:10:49.269Z,8.00
2022-12-04T15:13:27.454Z,7.47
2022-12-04T15:15:54.033Z,7.47
2022-12-04T15:18:20.540Z,7.30
2022-12-04T15:20:49.891Z,7.53
2022-12-04T15:23:21.362Z,8.53
2022-12-04T15:25:53.131Z,8.10
2022-12-04T15:28:28.946Z,7.90
2022-12-04T15:30:57.891Z,8.20
2022-12-04T15:33:30.628Z,7.97
2022-12-04T15:36:02.375Z,8.30
2022-12-04T15:38:29.149Z,9.07
2022-12-04T15:40:58.226Z,8.33
2022-12-04T15:43:27.637Z,8.70
2022-12-04T15:45:54.499Z,9.13
2022-12-04T15:48:28.456Z,9.13
2022-12-04T15:51:00.657Z,9.47
2022-12-04T15:53:30.993Z,9.00
2022-12-04T15:56:02.326Z,9.00
2022-12-04T15:58:31.589Z,9.17
2022-12-04T16:01:09.700Z,10.70
2022-12-04T16:03:42.403Z,9.30
2022-12-04T16:06:17.565Z,10.23
2022-12-04T16:08:46.396Z,9.50
2022-12-04T16:11:18.774Z,9.87
2022-12-04T16:13:45.056Z,9.70
2022-12-04T16:16:16.727Z,9.63
2022-12-04T16:18:43.405Z,9.50
2022-12-04T16:21:17.016Z,10.10
2022-12-04T16:23:44.014Z,10.67
2022-12-04T16:26:12.687Z,9.73
2022-12-04T16:28:39.041Z,11.83
2022-12-04T16:31:05.583Z,9.93
2022-12-04T16:33:31.984Z,11.07
2022-12-04T16:35:58.283Z,9.87
2022-12-04T16:38:24.991Z,11.13
2022-12-04T16:40:51.322Z,10.50
2022-12-04T16:43:19.759Z,10.03
2022-12-04T16:45:50.797Z,10.97
2022-12-04T16:48:17.147Z,10.80
2022-12-04T16:50:44.674Z,9.97
2022-12-04T16:53:19.685Z,11.27
2022-12-04T16:55:51.217Z,9.87
2022-12-04T16:58:19.700Z,10.33
2022-12-04T17:00:52.902Z,10.53
2022-12-04T17:03:26.683Z,11.20
2022-12-04T17:05:53.145Z,10.30
2022-12-04T17:08:20.068Z,9.93
2022-12-04T17:10:47.320Z,9.57
2022-12-04T17:13:13.853Z,10.73
2022-12-04T17:15:40.279Z,10.03
2022-12-04T17:18:11.980Z,10.23
2022-12-04T17:20:42.910Z,9.93
2022-12-04T17:23:10.667Z,10.13
2022-12-04T17:25:37.258Z,10.90
2022-12-04T17:28:03.720Z,10.13
2022-12-04T17:30:35.772Z,12.33
2022-12-04T17:33:02.797Z,10.70
2022-12-04T17:35:29.400Z,9.73
2022-12-04T17:37:58.360Z,11.33
2022-12-04T17:40:28.543Z,9.60
2022-12-04T17:42:54.817Z,10.67
2022-12-04T17:45:21.085Z,10.70
2022-12-04T17:47:47.364Z,10.67
2022-12-04T17:50:13.726Z,10.23
2022-12-04T17:52:40.040Z,10.33
2022-12-04T17:55:08.901Z,10.37
2022-12-04T17:57:35.417Z,9.50
2022-12-04T18:00:01.779Z,10.77
2022-12-04T18:02:28.151Z,10.53
2022-12-04T18:04:55.327Z,10.67
2022-12-04T18:07:21.950Z,10.47
2022-12-04T18:09:48.254Z,10.00
2022-12-04T18:12:14.581Z,12.20
2022-12-04T18:14:41.013Z,10.57
2022-12-04T18:17:07.323Z,11.90
2022-12-04T18:19:33.719Z,12.07
2022-12-04T18:22:00.096Z,11.70
2022-12-04T18:24:26.954Z,15.23
2022-12-04T18:26:53.689Z,12.43
2022-12-04T18:29:22.911Z,11.77
2022-12-04T18:31:50.904Z,11.33
2022-12-04T18:34:17.667Z,10.90
2022-12-04T18:36:45.391Z,12.13
2022-12-04T18:39:14.931Z,12.27
2022-12-04T18:41:41.679Z,11.17
2022-12-04T18:44:08.036Z,11.83
2022-12-04T18:46:34.432Z,11.57
2022-12-04T18:49:03.608Z,12.43
2022-12-04T18:51:39.463Z,12.40
2022-12-04T18:54:12.570Z,13.27
2022-12-04T18:56:39.212Z,12.63
2022-12-04T18:59:17.384Z,12.23
2022-12-04T19:01:44.101Z,11.50
2022-12-04T19:04:12.725Z,13.13
2022-12-04T19:06:50.589Z,11.80
2022-12-04T19:09:19.920Z,11.77
2022-12-04T19:11:46.819Z,13.80
2022-12-04T19:14:22.984Z,12.33
2022-12-04T19:16:50.518Z,12.47
2022-12-04T19:19:17.651Z,12.67
2022-12-04T19:21:44.377Z,12.67
2022-12-04T19:24:11.478Z,12.17
2022-12-04T19:26:38.169Z,11.03
2022-12-04T19:29:06.125Z,12.10
2022-12-04T19:31:34.989Z,11.87
2022-12-04T19:34:01.520Z,11.93
2022-12-04T19:36:29.898Z,11.33
2022-12-04T19:38:59.756Z,11.80
2022-12-04T19:41:31.286Z,11.53
2022-12-04T19:43:59.940Z,11.27
2022-12-04T19:46:29.927Z,11.23
2022-12-04T19:49:00.201Z,11.80
2022-12-04T19:51:26.610Z,10.77
2022-12-04T19:53:54.764Z,11.63
2022-12-04T19:56:24.370Z,10.73
2022-12-04T19:58:52.229Z,11.33
2022-12-04T20:01:20.608Z,11.50
2022-12-04T20:03:47.089Z,11.23
2022-12-04T20:06:16.188Z,11.37
2022-12-04T20:08:42.880Z,11.50
2022-12-04T20:11:19.359Z,11.47
2022-12-04T20:13:47.529Z,11.07
2022-12-04T20:16:16.875Z,11.07
2022-12-04T20:18:43.602Z,12.20
2022-12-04T20:21:11.848Z,12.47
2022-12-04T20:23:39.782Z,12.27
2022-12-04T20:26:08.333Z,12.47
2022-12-04T20:28:36.289Z,14.90
2022-12-04T20:31:35.464Z,13.03
2022-12-04T20:34:04.125Z,12.80
2022-12-04T20:36:31.618Z,12.30
2022-12-04T20:38:59.166Z,11.83
2022-12-04T20:41:27.746Z,11.57
2022-12-04T20:43:54.600Z,12.87
2022-12-04T20:46:31.507Z,14.50
2022-12-04T20:48:59.032Z,13.37
2022-12-04T20:51:28.492Z,12.33
2022-12-04T20:53:57.983Z,13.27
2022-12-04T20:56:26.368Z,13.50
2022-12-04T20:59:04.545Z,12.77
2022-12-04T21:01:31.010Z,12.20
2022-12-04T21:03:59.164Z,12.03
2022-12-04T21:06:37.043Z,11.57
2022-12-04T21:09:06.405Z,12.03
2022-12-04T21:11:35.972Z,11.17
2022-12-04T21:14:23.490Z,12.27
2022-12-04T21:16:50.423Z,12.40
2022-12-04T21:19:19.541Z,12.03
2022-12-04T21:21:46.365Z,12.27
2022-12-04T21:24:14.813Z,11.43
2022-12-04T21:26:41.342Z,12.37
2022-12-04T21:29:08.273Z,12.47
2022-12-04T21:31:35.998Z,13.10
2022-12-04T21:34:05.081Z,11.33
2022-12-04T21:36:31.428Z,12.67
2022-12-04T21:38:58.146Z,13.67
2022-12-04T21:41:43.778Z,12.77
2022-12-04T21:44:15.882Z,11.97
2022-12-04T21:46:43.623Z,12.77
2022-12-04T21:49:10.672Z,13.17
2022-12-04T21:51:56.780Z,12.27
2022-12-04T21:54:23.553Z,11.73
2022-12-04T21:56:49.942Z,12.30
2022-12-04T21:59:16.338Z,12.57
2022-12-04T22:01:45.494Z,12.10
2022-12-04T22:04:12.141Z,12.73
2022-12-04T22:06:38.492Z,12.00
2022-12-04T22:09:10.475Z,11.80
2022-12-04T22:11:38.087Z,11.67
2022-12-04T22:14:04.597Z,11.50
2022-12-04T22:16:32.849Z,11.67
2022-12-04T22:19:01.002Z,11.93
2022-12-04T22:21:28.493Z,11.93
2022-12-04T22:24:01.785Z,10.87
2022-12-04T22:26:29.732Z,11.27
2022-12-04T22:28:56.627Z,11.60
2022-12-04T22:31:25.812Z,10.57
2022-12-04T22:33:54.333Z,11.97
2022-12-04T22:36:23.107Z,11.03
2022-12-04T22:39:08.701Z,11.20
2022-12-04T22:41:36.498Z,10.57
2022-12-04T22:44:03.137Z,10.70
2022-12-04T22:46:29.558Z,10.87
2022-12-04T22:48:55.967Z,10.60
2022-12-04T22:51:22.509Z,10.47
2022-12-04T22:53:52.424Z,10.60
2022-12-04T22:56:24.524Z,10.67
2022-12-04T22:58:51.985Z,9.53
2022-12-04T23:01:23.108Z,10.07
2022-12-04T23:03:50.430Z,10.67
2022-12-04T23:06:19.092Z,10.30
2022-12-04T23:08:45.921Z,9.60
2022-12-04T23:11:20.606Z,9.80
2022-12-04T23:13:51.976Z,8.83
2022-12-04T23:16:20.485Z,10.07
2022-12-04T23:18:47.310Z,9.50
2022-12-04T23:21:14.489Z,9.00
2022-12-04T23:23:43.270Z,9.27
2022-12-04T23:26:12.944Z,9.10
2022-12-04T23:28:39.401Z,8.70
2022-12-04T23:31:05.999Z,8.80
2022-12-04T23:33:32.904Z,8.23
2022-12-04T23:36:01.356Z,8.20
2022-12-04T23:38:28.904Z,8.43
2022-12-04T23:41:10.360Z,8.93
2022-12-04T23:43:36.782Z,8.20
2022-12-04T23:46:10.363Z,8.70
2022-12-04T23:48:38.074Z,9.03
2022-12-04T23:51:04.518Z,9.10
2022-12-04T23:53:30.813Z,8.97
2022-12-04T23:55:59.426Z,8.60
2022-12-04T23:58:26.106Z,8.87
